sensor_id;sensor_type;location;lat;lon;timestamp;P1;durP1;ratioP1;P2;durP2;ratioP2
36585;SDS011;22591;48.314;11.562;2024-01-30T00:02:15;17.50;;;14.43;;
36585;SDS011;22591;48.314;11.562;2024-01-30T00:04:41;23.80;;;16.05;;
36585;SDS011;22591;48.314;11.562;2024-01-30T00:07:07;23.77;;;15.85;;
36585;SDS011;22591;48.314;11.562;2024-01-30T00:09:32;20.40;;;16.63;;
36585;SDS011;22591;48.314;11.562;2024-01-30T00:11:58;25.63;;;16.33;;
36585;SDS011;22591;48.314;11.562;2024-01-30T00:14:24;20.35;;;17.52;;
36585;SDS011;22591;48.314;11.562;2024-01-30T00:16:50;20.55;;;17.50;;
36585;SDS011;22591;48.314;11.562;2024-01-30T00:19:16;21.58;;;15.93;;
36585;SDS011;22591;48.314;11.562;2024-01-30T00:21:42;23.15;;;16.25;;
36585;SDS011;22591;48.314;11.562;2024-01-30T00:24:07;25.67;;;16.83;;
36585;SDS011;22591;48.314;11.562;2024-01-30T00:26:33;19.90;;;15.73;;
36585;SDS011;22591;48.314;11.562;2024-01-30T00:28:59;20.65;;;16.52;;
36585;SDS011;22591;48.314;11.562;2024-01-30T00:31:24;20.17;;;16.63;;
36585;SDS011;22591;48.314;11.562;2024-01-30T00:33:50;20.85;;;15.40;;
36585;SDS011;22591;48.314;11.562;2024-01-30T00:36:15;22.75;;;16.65;;
36585;SDS011;22591;48.314;11.562;2024-01-30T00:38:41;26.60;;;16.20;;
36585;SDS011;22591;48.314;11.562;2024-01-30T00:41:07;21.77;;;15.70;;
36585;SDS011;22591;48.314;11.562;2024-01-30T00:43:33;18.92;;;15.38;;
36585;SDS011;22591;48.314;11.562;2024-01-30T00:45:59;22.88;;;15.93;;
36585;SDS011;22591;48.314;11.562;2024-01-30T00:48:24;19.42;;;16.08;;
36585;SDS011;22591;48.314;11.562;2024-01-30T00:50:50;23.92;;;18.23;;
36585;SDS011;22591;48.314;11.562;2024-01-30T00:53:15;22.52;;;17.98;;
36585;SDS011;22591;48.314;11.562;2024-01-30T00:55:41;23.17;;;17.48;;
36585;SDS011;22591;48.314;11.562;2024-01-30T00:58:06;28.15;;;18.33;;
36585;SDS011;22591;48.314;11.562;2024-01-30T01:00:32;20.77;;;18.15;;
36585;SDS011;22591;48.314;11.562;2024-01-30T01:02:58;23.00;;;17.52;;
36585;SDS011;22591;48.314;11.562;2024-01-30T01:05:24;26.42;;;18.00;;
36585;SDS011;22591;48.314;11.562;2024-01-30T01:07:50;32.33;;;18.13;;
36585;SDS011;22591;48.314;11.562;2024-01-30T01:10:18;22.27;;;16.55;;
36585;SDS011;22591;48.314;11.562;2024-01-30T01:12:44;23.23;;;17.23;;
36585;SDS011;22591;48.314;11.562;2024-01-30T01:15:10;25.58;;;18.17;;
36585;SDS011;22591;48.314;11.562;2024-01-30T01:17:36;24.73;;;17.15;;
36585;SDS011;22591;48.314;11.562;2024-01-30T01:20:03;22.63;;;16.77;;
36585;SDS011;22591;48.314;11.562;2024-01-30T01:22:31;24.63;;;15.57;;
36585;SDS011;22591;48.314;11.562;2024-01-30T01:24:57;22.48;;;16.63;;
36585;SDS011;22591;48.314;11.562;2024-01-30T01:27:23;24.35;;;17.27;;
36585;SDS011;22591;48.314;11.562;2024-01-30T01:29:48;21.20;;;17.02;;
36585;SDS011;22591;48.314;11.562;2024-01-30T01:32:14;25.02;;;17.52;;
36585;SDS011;22591;48.314;11.562;2024-01-30T01:34:40;23.23;;;15.95;;
36585;SDS011;22591;48.314;11.562;2024-01-30T01:37:05;26.17;;;16.17;;
36585;SDS011;22591;48.314;11.562;2024-01-30T01:39:32;19.60;;;15.73;;
36585;SDS011;22591;48.314;11.562;2024-01-30T01:41:57;24.10;;;16.75;;
36585;SDS011;22591;48.314;11.562;2024-01-30T01:44:23;21.15;;;16.58;;
36585;SDS011;22591;48.314;11.562;2024-01-30T01:46:48;23.25;;;16.75;;
36585;SDS011;22591;48.314;11.562;2024-01-30T01:49:14;22.45;;;16.40;;
36585;SDS011;22591;48.314;11.562;2024-01-30T01:51:40;23.67;;;16.70;;
36585;SDS011;22591;48.314;11.562;2024-01-30T01:54:07;23.77;;;18.85;;
36585;SDS011;22591;48.314;11.562;2024-01-30T01:56:33;22.90;;;18.05;;
36585;SDS011;22591;48.314;11.562;2024-01-30T01:59:00;26.35;;;19.77;;
36585;SDS011;22591;48.314;11.562;2024-01-30T02:01:29;33.75;;;21.20;;
36585;SDS011;22591;48.314;11.562;2024-01-30T02:03:57;27.45;;;21.25;;
36585;SDS011;22591;48.314;11.562;2024-01-30T02:06:23;21.77;;;18.92;;
36585;SDS011;22591;48.314;11.562;2024-01-30T02:08:49;26.75;;;19.38;;
36585;SDS011;22591;48.314;11.562;2024-01-30T02:11:15;25.05;;;19.75;;
36585;SDS011;22591;48.314;11.562;2024-01-30T02:13:41;26.25;;;18.95;;
36585;SDS011;22591;48.314;11.562;2024-01-30T02:16:07;24.88;;;19.42;;
36585;SDS011;22591;48.314;11.562;2024-01-30T02:18:32;34.30;;;25.73;;
36585;SDS011;22591;48.314;11.562;2024-01-30T02:20:58;31.40;;;21.27;;
36585;SDS011;22591;48.314;11.562;2024-01-30T02:23:28;28.05;;;21.00;;
36585;SDS011;22591;48.314;11.562;2024-01-30T02:25:55;28.98;;;19.25;;
36585;SDS011;22591;48.314;11.562;2024-01-30T02:28:21;26.02;;;18.65;;
36585;SDS011;22591;48.314;11.562;2024-01-30T02:30:46;23.63;;;18.55;;
36585;SDS011;22591;48.314;11.562;2024-01-30T02:33:12;25.73;;;17.30;;
36585;SDS011;22591;48.314;11.562;2024-01-30T02:35:38;25.52;;;18.80;;
36585;SDS011;22591;48.314;11.562;2024-01-30T02:38:04;21.02;;;17.45;;
36585;SDS011;22591;48.314;11.562;2024-01-30T02:40:30;27.85;;;19.42;;
36585;SDS011;22591;48.314;11.562;2024-01-30T02:42:56;26.25;;;19.77;;
36585;SDS011;22591;48.314;11.562;2024-01-30T02:45:22;30.20;;;22.13;;
36585;SDS011;22591;48.314;11.562;2024-01-30T02:47:48;24.23;;;20.42;;
36585;SDS011;22591;48.314;11.562;2024-01-30T02:50:13;24.48;;;20.35;;
36585;SDS011;22591;48.314;11.562;2024-01-30T02:52:40;28.58;;;21.52;;
36585;SDS011;22591;48.314;11.562;2024-01-30T02:55:05;29.08;;;20.58;;
36585;SDS011;22591;48.314;11.562;2024-01-30T02:57:31;28.38;;;21.38;;
36585;SDS011;22591;48.314;11.562;2024-01-30T02:59:57;26.10;;;20.17;;
36585;SDS011;22591;48.314;11.562;2024-01-30T03:02:23;26.48;;;19.80;;
36585;SDS011;22591;48.314;11.562;2024-01-30T03:04:48;26.40;;;21.13;;
36585;SDS011;22591;48.314;11.562;2024-01-30T03:07:14;29.00;;;21.55;;
36585;SDS011;22591;48.314;11.562;2024-01-30T03:09:40;32.42;;;22.20;;
36585;SDS011;22591;48.314;11.562;2024-01-30T03:12:07;30.80;;;21.80;;
36585;SDS011;22591;48.314;11.562;2024-01-30T03:14:33;28.35;;;21.90;;
36585;SDS011;22591;48.314;11.562;2024-01-30T03:16:58;26.55;;;21.08;;
36585;SDS011;22591;48.314;11.562;2024-01-30T03:19:24;26.77;;;20.40;;
36585;SDS011;22591;48.314;11.562;2024-01-30T03:21:50;23.52;;;18.77;;
36585;SDS011;22591;48.314;11.562;2024-01-30T03:24:16;29.38;;;20.13;;
36585;SDS011;22591;48.314;11.562;2024-01-30T03:26:42;28.25;;;19.58;;
36585;SDS011;22591;48.314;11.562;2024-01-30T03:29:08;25.10;;;19.75;;
36585;SDS011;22591;48.314;11.562;2024-01-30T03:31:34;25.25;;;18.88;;
36585;SDS011;22591;48.314;11.562;2024-01-30T03:34:00;24.38;;;19.92;;
36585;SDS011;22591;48.314;11.562;2024-01-30T03:36:26;23.77;;;16.95;;
36585;SDS011;22591;48.314;11.562;2024-01-30T03:38:52;25.13;;;18.58;;
36585;SDS011;22591;48.314;11.562;2024-01-30T03:41:18;27.77;;;20.27;;
36585;SDS011;22591;48.314;11.562;2024-01-30T03:43:44;25.70;;;19.80;;
36585;SDS011;22591;48.314;11.562;2024-01-30T03:46:11;23.08;;;19.05;;
36585;SDS011;22591;48.314;11.562;2024-01-30T03:48:37;27.40;;;20.42;;
36585;SDS011;22591;48.314;11.562;2024-01-30T03:51:03;29.35;;;19.88;;
36585;SDS011;22591;48.314;11.562;2024-01-30T03:53:29;25.05;;;20.58;;
36585;SDS011;22591;48.314;11.562;2024-01-30T03:55:54;25.58;;;20.35;;
36585;SDS011;22591;48.314;11.562;2024-01-30T03:58:20;24.45;;;18.83;;
36585;SDS011;22591;48.314;11.562;2024-01-30T04:00:46;24.20;;;19.02;;
36585;SDS011;22591;48.314;11.562;2024-01-30T04:03:11;28.02;;;20.60;;
36585;SDS011;22591;48.314;11.562;2024-01-30T04:05:37;29.15;;;20.83;;
36585;SDS011;22591;48.314;11.562;2024-01-30T04:08:02;29.38;;;20.17;;
36585;SDS011;22591;48.314;11.562;2024-01-30T04:10:28;27.70;;;20.65;;
36585;SDS011;22591;48.314;11.562;2024-01-30T04:12:53;26.45;;;18.98;;
36585;SDS011;22591;48.314;11.562;2024-01-30T04:15:19;33.25;;;19.88;;
36585;SDS011;22591;48.314;11.562;2024-01-30T04:17:45;32.17;;;19.88;;
36585;SDS011;22591;48.314;11.562;2024-01-30T04:20:16;26.80;;;19.67;;
36585;SDS011;22591;48.314;11.562;2024-01-30T04:22:45;25.00;;;19.45;;
36585;SDS011;22591;48.314;11.562;2024-01-30T04:25:12;26.60;;;20.65;;
36585;SDS011;22591;48.314;11.562;2024-01-30T04:27:38;27.17;;;18.95;;
36585;SDS011;22591;48.314;11.562;2024-01-30T04:30:03;26.50;;;19.35;;
36585;SDS011;22591;48.314;11.562;2024-01-30T04:32:29;21.98;;;17.90;;
36585;SDS011;22591;48.314;11.562;2024-01-30T04:34:55;21.70;;;18.48;;
36585;SDS011;22591;48.314;11.562;2024-01-30T04:37:20;21.00;;;17.33;;
36585;SDS011;22591;48.314;11.562;2024-01-30T04:39:46;22.58;;;17.73;;
36585;SDS011;22591;48.314;11.562;2024-01-30T04:42:12;23.63;;;17.80;;
36585;SDS011;22591;48.314;11.562;2024-01-30T04:44:37;21.83;;;17.42;;
36585;SDS011;22591;48.314;11.562;2024-01-30T04:47:03;20.85;;;17.55;;
36585;SDS011;22591;48.314;11.562;2024-01-30T04:49:30;23.55;;;17.40;;
36585;SDS011;22591;48.314;11.562;2024-01-30T04:51:56;18.52;;;15.35;;
36585;SDS011;22591;48.314;11.562;2024-01-30T04:54:22;23.02;;;16.17;;
36585;SDS011;22591;48.314;11.562;2024-01-30T04:56:48;25.30;;;16.52;;
36585;SDS011;22591;48.314;11.562;2024-01-30T04:59:13;21.58;;;16.52;;
36585;SDS011;22591;48.314;11.562;2024-01-30T05:01:39;23.48;;;17.23;;
36585;SDS011;22591;48.314;11.562;2024-01-30T05:04:07;24.02;;;18.40;;
36585;SDS011;22591;48.314;11.562;2024-01-30T05:06:32;25.02;;;19.35;;
36585;SDS011;22591;48.314;11.562;2024-01-30T05:08:58;34.55;;;21.45;;
36585;SDS011;22591;48.314;11.562;2024-01-30T05:11:24;23.58;;;17.85;;
36585;SDS011;22591;48.314;11.562;2024-01-30T05:13:49;21.35;;;17.20;;
36585;SDS011;22591;48.314;11.562;2024-01-30T05:16:15;21.60;;;17.20;;
36585;SDS011;22591;48.314;11.562;2024-01-30T05:18:40;28.55;;;17.65;;
36585;SDS011;22591;48.314;11.562;2024-01-30T05:21:06;22.23;;;17.00;;
36585;SDS011;22591;48.314;11.562;2024-01-30T05:23:31;23.42;;;17.15;;
36585;SDS011;22591;48.314;11.562;2024-01-30T05:25:57;25.70;;;19.10;;
36585;SDS011;22591;48.314;11.562;2024-01-30T05:28:22;25.67;;;19.00;;
36585;SDS011;22591;48.314;11.562;2024-01-30T05:30:48;22.60;;;17.38;;
36585;SDS011;22591;48.314;11.562;2024-01-30T05:33:13;21.20;;;15.98;;
36585;SDS011;22591;48.314;11.562;2024-01-30T05:35:39;25.35;;;16.98;;
36585;SDS011;22591;48.314;11.562;2024-01-30T05:38:04;22.55;;;17.20;;
36585;SDS011;22591;48.314;11.562;2024-01-30T05:40:30;18.92;;;15.65;;
36585;SDS011;22591;48.314;11.562;2024-01-30T05:42:56;19.77;;;15.50;;
36585;SDS011;22591;48.314;11.562;2024-01-30T05:45:25;19.92;;;15.80;;
36585;SDS011;22591;48.314;11.562;2024-01-30T05:47:51;18.27;;;15.50;;
36585;SDS011;22591;48.314;11.562;2024-01-30T05:50:17;19.20;;;15.60;;
36585;SDS011;22591;48.314;11.562;2024-01-30T05:52:43;17.95;;;15.35;;
36585;SDS011;22591;48.314;11.562;2024-01-30T05:55:08;22.33;;;16.90;;
36585;SDS011;22591;48.314;11.562;2024-01-30T05:57:34;20.27;;;16.13;;
36585;SDS011;22591;48.314;11.562;2024-01-30T06:00:00;21.80;;;14.93;;
36585;SDS011;22591;48.314;11.562;2024-01-30T06:02:26;20.20;;;16.15;;
36585;SDS011;22591;48.314;11.562;2024-01-30T06:04:51;27.70;;;15.68;;
36585;SDS011;22591;48.314;11.562;2024-01-30T06:07:17;27.27;;;17.23;;
36585;SDS011;22591;48.314;11.562;2024-01-30T06:09:42;20.90;;;16.33;;
36585;SDS011;22591;48.314;11.562;2024-01-30T06:12:08;21.83;;;17.25;;
36585;SDS011;22591;48.314;11.562;2024-01-30T06:14:34;17.88;;;15.30;;
36585;SDS011;22591;48.314;11.562;2024-01-30T06:17:00;20.67;;;16.50;;
36585;SDS011;22591;48.314;11.562;2024-01-30T06:19:25;19.00;;;15.75;;
36585;SDS011;22591;48.314;11.562;2024-01-30T06:21:51;20.38;;;15.20;;
36585;SDS011;22591;48.314;11.562;2024-01-30T06:24:16;23.35;;;15.80;;
36585;SDS011;22591;48.314;11.562;2024-01-30T06:26:42;21.98;;;16.90;;
36585;SDS011;22591;48.314;11.562;2024-01-30T06:29:07;21.80;;;16.63;;
36585;SDS011;22591;48.314;11.562;2024-01-30T06:31:34;21.42;;;15.15;;
36585;SDS011;22591;48.314;11.562;2024-01-30T06:34:05;22.48;;;17.80;;
36585;SDS011;22591;48.314;11.562;2024-01-30T06:36:30;25.38;;;18.10;;
36585;SDS011;22591;48.314;11.562;2024-01-30T06:38:56;18.90;;;14.95;;
36585;SDS011;22591;48.314;11.562;2024-01-30T06:41:21;22.02;;;15.40;;
36585;SDS011;22591;48.314;11.562;2024-01-30T06:43:47;17.25;;;14.32;;
36585;SDS011;22591;48.314;11.562;2024-01-30T06:46:13;17.08;;;14.95;;
36585;SDS011;22591;48.314;11.562;2024-01-30T06:48:38;20.65;;;15.52;;
36585;SDS011;22591;48.314;11.562;2024-01-30T06:51:05;24.48;;;17.13;;
36585;SDS011;22591;48.314;11.562;2024-01-30T06:53:31;22.33;;;17.38;;
36585;SDS011;22591;48.314;11.562;2024-01-30T06:55:56;25.20;;;19.05;;
36585;SDS011;22591;48.314;11.562;2024-01-30T06:58:22;25.90;;;18.90;;
36585;SDS011;22591;48.314;11.562;2024-01-30T07:00:47;24.40;;;17.65;;
36585;SDS011;22591;48.314;11.562;2024-01-30T07:03:13;30.85;;;20.38;;
36585;SDS011;22591;48.314;11.562;2024-01-30T07:05:39;25.35;;;19.13;;
36585;SDS011;22591;48.314;11.562;2024-01-30T07:08:04;23.33;;;17.95;;
36585;SDS011;22591;48.314;11.562;2024-01-30T07:10:30;26.98;;;18.17;;
36585;SDS011;22591;48.314;11.562;2024-01-30T07:12:56;23.77;;;17.38;;
36585;SDS011;22591;48.314;11.562;2024-01-30T07:15:22;25.55;;;18.58;;
36585;SDS011;22591;48.314;11.562;2024-01-30T07:17:47;21.95;;;17.17;;
36585;SDS011;22591;48.314;11.562;2024-01-30T07:20:13;25.63;;;17.20;;
36585;SDS011;22591;48.314;11.562;2024-01-30T07:22:39;22.90;;;16.15;;
36585;SDS011;22591;48.314;11.562;2024-01-30T07:25:06;24.27;;;17.00;;
36585;SDS011;22591;48.314;11.562;2024-01-30T07:27:32;21.00;;;15.48;;
36585;SDS011;22591;48.314;11.562;2024-01-30T07:29:57;23.92;;;15.80;;
36585;SDS011;22591;48.314;11.562;2024-01-30T07:32:23;22.52;;;17.98;;
36585;SDS011;22591;48.314;11.562;2024-01-30T07:34:48;21.15;;;18.48;;
36585;SDS011;22591;48.314;11.562;2024-01-30T07:37:14;22.17;;;17.58;;
36585;SDS011;22591;48.314;11.562;2024-01-30T07:39:41;23.75;;;18.90;;
36585;SDS011;22591;48.314;11.562;2024-01-30T07:42:07;23.63;;;19.38;;
36585;SDS011;22591;48.314;11.562;2024-01-30T07:44:33;25.90;;;19.70;;
36585;SDS011;22591;48.314;11.562;2024-01-30T07:46:59;26.33;;;20.13;;
36585;SDS011;22591;48.314;11.562;2024-01-30T07:49:24;30.70;;;23.30;;
36585;SDS011;22591;48.314;11.562;2024-01-30T07:51:50;27.83;;;22.70;;
36585;SDS011;22591;48.314;11.562;2024-01-30T07:54:16;27.73;;;20.88;;
36585;SDS011;22591;48.314;11.562;2024-01-30T07:56:41;25.60;;;19.52;;
36585;SDS011;22591;48.314;11.562;2024-01-30T07:59:10;21.88;;;18.15;;
36585;SDS011;22591;48.314;11.562;2024-01-30T08:01:36;22.83;;;18.58;;
36585;SDS011;22591;48.314;11.562;2024-01-30T08:04:02;27.77;;;18.45;;
36585;SDS011;22591;48.314;11.562;2024-01-30T08:06:27;23.23;;;17.38;;
36585;SDS011;22591;48.314;11.562;2024-01-30T08:08:53;23.05;;;17.45;;
36585;SDS011;22591;48.314;11.562;2024-01-30T08:11:21;20.13;;;17.65;;
36585;SDS011;22591;48.314;11.562;2024-01-30T08:13:54;23.58;;;17.38;;
36585;SDS011;22591;48.314;11.562;2024-01-30T08:16:20;18.95;;;16.85;;
36585;SDS011;22591;48.314;11.562;2024-01-30T08:18:45;24.70;;;16.30;;
36585;SDS011;22591;48.314;11.562;2024-01-30T08:21:11;17.70;;;15.00;;
36585;SDS011;22591;48.314;11.562;2024-01-30T08:23:38;19.80;;;15.57;;
36585;SDS011;22591;48.314;11.562;2024-01-30T08:26:04;24.05;;;15.38;;
36585;SDS011;22591;48.314;11.562;2024-01-30T08:28:30;17.67;;;13.07;;
36585;SDS011;22591;48.314;11.562;2024-01-30T08:30:56;17.58;;;13.00;;
36585;SDS011;22591;48.314;11.562;2024-01-30T08:33:22;15.80;;;12.75;;
36585;SDS011;22591;48.314;11.562;2024-01-30T08:35:47;17.10;;;12.73;;
36585;SDS011;22591;48.314;11.562;2024-01-30T08:38:13;13.27;;;11.95;;
36585;SDS011;22591;48.314;11.562;2024-01-30T08:40:39;14.13;;;11.82;;
36585;SDS011;22591;48.314;11.562;2024-01-30T08:43:04;12.95;;;11.18;;
36585;SDS011;22591;48.314;11.562;2024-01-30T08:45:30;11.60;;;10.50;;
36585;SDS011;22591;48.314;11.562;2024-01-30T08:47:55;10.20;;;9.30;;
36585;SDS011;22591;48.314;11.562;2024-01-30T08:50:21;16.83;;;11.70;;
36585;SDS011;22591;48.314;11.562;2024-01-30T08:52:47;10.07;;;9.18;;
36585;SDS011;22591;48.314;11.562;2024-01-30T08:55:12;10.10;;;7.47;;
36585;SDS011;22591;48.314;11.562;2024-01-30T08:57:38;6.85;;;6.25;;
36585;SDS011;22591;48.314;11.562;2024-01-30T09:00:04;9.30;;;7.68;;
36585;SDS011;22591;48.314;11.562;2024-01-30T09:02:34;8.25;;;7.45;;
36585;SDS011;22591;48.314;11.562;2024-01-30T09:04:59;8.13;;;7.35;;
36585;SDS011;22591;48.314;11.562;2024-01-30T09:07:25;8.63;;;7.82;;
36585;SDS011;22591;48.314;11.562;2024-01-30T09:09:50;7.57;;;6.80;;
36585;SDS011;22591;48.314;11.562;2024-01-30T09:12:16;9.95;;;8.75;;
36585;SDS011;22591;48.314;11.562;2024-01-30T09:14:41;10.15;;;7.82;;
36585;SDS011;22591;48.314;11.562;2024-01-30T09:17:07;9.85;;;8.27;;
36585;SDS011;22591;48.314;11.562;2024-01-30T09:19:33;10.32;;;9.18;;
36585;SDS011;22591;48.314;11.562;2024-01-30T09:21:58;9.68;;;8.75;;
36585;SDS011;22591;48.314;11.562;2024-01-30T09:24:25;10.10;;;9.10;;
36585;SDS011;22591;48.314;11.562;2024-01-30T09:26:51;10.20;;;9.30;;
36585;SDS011;22591;48.314;11.562;2024-01-30T09:29:17;12.65;;;8.73;;
36585;SDS011;22591;48.314;11.562;2024-01-30T09:31:43;10.38;;;9.07;;
36585;SDS011;22591;48.314;11.562;2024-01-30T09:34:09;10.60;;;9.45;;
36585;SDS011;22591;48.314;11.562;2024-01-30T09:36:35;12.40;;;10.30;;
36585;SDS011;22591;48.314;11.562;2024-01-30T09:39:01;10.38;;;9.38;;
36585;SDS011;22591;48.314;11.562;2024-01-30T09:41:27;9.60;;;8.80;;
36585;SDS011;22591;48.314;11.562;2024-01-30T09:43:54;9.07;;;8.23;;
36585;SDS011;22591;48.314;11.562;2024-01-30T09:46:22;9.23;;;8.23;;
36585;SDS011;22591;48.314;11.562;2024-01-30T09:48:52;10.13;;;7.60;;
36585;SDS011;22591;48.314;11.562;2024-01-30T09:51:19;12.18;;;8.48;;
36585;SDS011;22591;48.314;11.562;2024-01-30T09:53:46;9.10;;;8.20;;
36585;SDS011;22591;48.314;11.562;2024-01-30T09:56:13;9.55;;;8.40;;
36585;SDS011;22591;48.314;11.562;2024-01-30T09:58:39;13.18;;;9.32;;
36585;SDS011;22591;48.314;11.562;2024-01-30T10:01:05;15.50;;;9.70;;
36585;SDS011;22591;48.314;11.562;2024-01-30T10:03:31;10.90;;;9.88;;
36585;SDS011;22591;48.314;11.562;2024-01-30T10:05:56;13.23;;;10.88;;
36585;SDS011;22591;48.314;11.562;2024-01-30T10:08:23;19.42;;;10.43;;
36585;SDS011;22591;48.314;11.562;2024-01-30T10:10:49;13.02;;;10.18;;
36585;SDS011;22591;48.314;11.562;2024-01-30T10:13:15;16.23;;;10.82;;
36585;SDS011;22591;48.314;11.562;2024-01-30T10:15:44;12.68;;;10.52;;
36585;SDS011;22591;48.314;11.562;2024-01-30T10:18:10;11.35;;;10.18;;
36585;SDS011;22591;48.314;11.562;2024-01-30T10:20:36;10.80;;;9.65;;
36585;SDS011;22591;48.314;11.562;2024-01-30T10:23:01;15.93;;;9.75;;
36585;SDS011;22591;48.314;11.562;2024-01-30T10:25:27;13.68;;;10.25;;
36585;SDS011;22591;48.314;11.562;2024-01-30T10:27:53;15.48;;;10.13;;
36585;SDS011;22591;48.314;11.562;2024-01-30T10:30:20;15.02;;;11.40;;
36585;SDS011;22591;48.314;11.562;2024-01-30T10:32:46;11.80;;;10.60;;
36585;SDS011;22591;48.314;11.562;2024-01-30T10:35:12;15.77;;;11.15;;
36585;SDS011;22591;48.314;11.562;2024-01-30T10:37:37;16.90;;;10.30;;
36585;SDS011;22591;48.314;11.562;2024-01-30T10:40:03;13.95;;;10.27;;
36585;SDS011;22591;48.314;11.562;2024-01-30T10:42:32;11.43;;;10.30;;
36585;SDS011;22591;48.314;11.562;2024-01-30T10:45:13;10.40;;;9.35;;
36585;SDS011;22591;48.314;11.562;2024-01-30T10:47:44;18.80;;;11.60;;
36585;SDS011;22591;48.314;11.562;2024-01-30T10:50:13;12.80;;;9.95;;
36585;SDS011;22591;48.314;11.562;2024-01-30T10:52:39;16.88;;;9.82;;
36585;SDS011;22591;48.314;11.562;2024-01-30T10:55:07;20.13;;;9.43;;
36585;SDS011;22591;48.314;11.562;2024-01-30T10:57:36;13.05;;;9.40;;
36585;SDS011;22591;48.314;11.562;2024-01-30T11:00:09;12.32;;;10.07;;
36585;SDS011;22591;48.314;11.562;2024-01-30T11:02:38;10.45;;;9.32;;
36585;SDS011;22591;48.314;11.562;2024-01-30T11:05:05;10.10;;;9.00;;
36585;SDS011;22591;48.314;11.562;2024-01-30T11:07:30;16.70;;;10.23;;
36585;SDS011;22591;48.314;11.562;2024-01-30T11:12:28;11.75;;;10.25;;
36585;SDS011;22591;48.314;11.562;2024-01-30T11:15:02;15.90;;;10.55;;
36585;SDS011;22591;48.314;11.562;2024-01-30T11:22:44;10.07;;;9.07;;
36585;SDS011;22591;48.314;11.562;2024-01-30T11:25:13;11.48;;;10.27;;
36585;SDS011;22591;48.314;11.562;2024-01-30T11:27:41;11.20;;;9.30;;
36585;SDS011;22591;48.314;11.562;2024-01-30T11:30:08;11.05;;;9.57;;
36585;SDS011;22591;48.314;11.562;2024-01-30T11:32:33;10.93;;;9.93;;
36585;SDS011;22591;48.314;11.562;2024-01-30T11:34:59;11.35;;;10.05;;
36585;SDS011;22591;48.314;11.562;2024-01-30T11:37:25;10.80;;;9.80;;
36585;SDS011;22591;48.314;11.562;2024-01-30T11:39:53;14.60;;;10.20;;
36585;SDS011;22591;48.314;11.562;2024-01-30T11:42:21;13.05;;;8.93;;
36585;SDS011;22591;48.314;11.562;2024-01-30T11:44:49;9.93;;;8.50;;
36585;SDS011;22591;48.314;11.562;2024-01-30T11:47:16;8.82;;;7.90;;
36585;SDS011;22591;48.314;11.562;2024-01-30T11:49:42;11.98;;;8.40;;
36585;SDS011;22591;48.314;11.562;2024-01-30T11:52:08;7.35;;;6.13;;
36585;SDS011;22591;48.314;11.562;2024-01-30T11:54:34;7.03;;;6.10;;
36585;SDS011;22591;48.314;11.562;2024-01-30T11:56:59;5.45;;;4.95;;
36585;SDS011;22591;48.314;11.562;2024-01-30T11:59:25;10.68;;;8.50;;
36585;SDS011;22591;48.314;11.562;2024-01-30T12:01:51;9.90;;;8.82;;
36585;SDS011;22591;48.314;11.562;2024-01-30T12:04:17;9.75;;;8.80;;
36585;SDS011;22591;48.314;11.562;2024-01-30T12:06:43;9.55;;;8.10;;
36585;SDS011;22591;48.314;11.562;2024-01-30T12:09:08;9.32;;;7.05;;
36585;SDS011;22591;48.314;11.562;2024-01-30T12:11:44;10.23;;;7.35;;
36585;SDS011;22591;48.314;11.562;2024-01-30T12:14:13;8.35;;;6.85;;
36585;SDS011;22591;48.314;11.562;2024-01-30T12:16:40;5.53;;;4.88;;
36585;SDS011;22591;48.314;11.562;2024-01-30T12:19:06;5.15;;;4.05;;
36585;SDS011;22591;48.314;11.562;2024-01-30T12:21:33;6.03;;;3.55;;
36585;SDS011;22591;48.314;11.562;2024-01-30T12:23:59;4.00;;;3.70;;
36585;SDS011;22591;48.314;11.562;2024-01-30T12:26:25;4.00;;;3.67;;
36585;SDS011;22591;48.314;11.562;2024-01-30T12:28:54;4.07;;;3.80;;
36585;SDS011;22591;48.314;11.562;2024-01-30T12:31:31;6.63;;;3.92;;
36585;SDS011;22591;48.314;11.562;2024-01-30T12:33:59;10.30;;;3.92;;
36585;SDS011;22591;48.314;11.562;2024-01-30T12:36:25;5.85;;;3.35;;
36585;SDS011;22591;48.314;11.562;2024-01-30T12:38:51;6.95;;;6.15;;
36585;SDS011;22591;48.314;11.562;2024-01-30T12:41:17;6.63;;;6.05;;
36585;SDS011;22591;48.314;11.562;2024-01-30T12:43:43;9.23;;;5.88;;
36585;SDS011;22591;48.314;11.562;2024-01-30T12:46:09;6.30;;;5.72;;
36585;SDS011;22591;48.314;11.562;2024-01-30T12:48:34;8.13;;;6.28;;
36585;SDS011;22591;48.314;11.562;2024-01-30T12:51:00;11.48;;;5.53;;
36585;SDS011;22591;48.314;11.562;2024-01-30T12:53:26;6.88;;;6.15;;
36585;SDS011;22591;48.314;11.562;2024-01-30T12:55:51;6.22;;;5.47;;
36585;SDS011;22591;48.314;11.562;2024-01-30T12:58:19;6.50;;;5.40;;
36585;SDS011;22591;48.314;11.562;2024-01-30T13:00:44;6.88;;;5.75;;
36585;SDS011;22591;48.314;11.562;2024-01-30T13:03:10;5.00;;;4.70;;
36585;SDS011;22591;48.314;11.562;2024-01-30T13:05:36;5.30;;;4.45;;
36585;SDS011;22591;48.314;11.562;2024-01-30T13:08:02;4.88;;;4.05;;
36585;SDS011;22591;48.314;11.562;2024-01-30T13:10:28;4.78;;;4.30;;
36585;SDS011;22591;48.314;11.562;2024-01-30T13:12:53;4.15;;;3.95;;
36585;SDS011;22591;48.314;11.562;2024-01-30T13:15:19;4.50;;;4.10;;
36585;SDS011;22591;48.314;11.562;2024-01-30T13:17:45;4.10;;;3.80;;
36585;SDS011;22591;48.314;11.562;2024-01-30T13:20:12;7.20;;;4.53;;
36585;SDS011;22591;48.314;11.562;2024-01-30T13:22:41;4.80;;;4.38;;
36585;SDS011;22591;48.314;11.562;2024-01-30T13:25:08;4.95;;;4.43;;
36585;SDS011;22591;48.314;11.562;2024-01-30T13:27:33;4.95;;;4.55;;
36585;SDS011;22591;48.314;11.562;2024-01-30T13:29:59;5.20;;;4.10;;
36585;SDS011;22591;48.314;11.562;2024-01-30T13:32:25;4.93;;;4.13;;
36585;SDS011;22591;48.314;11.562;2024-01-30T13:34:51;4.38;;;3.97;;
36585;SDS011;22591;48.314;11.562;2024-01-30T13:37:16;4.40;;;4.00;;
36585;SDS011;22591;48.314;11.562;2024-01-30T13:39:42;4.30;;;3.95;;
36585;SDS011;22591;48.314;11.562;2024-01-30T13:42:07;4.85;;;4.43;;
36585;SDS011;22591;48.314;11.562;2024-01-30T13:44:34;4.43;;;4.03;;
36585;SDS011;22591;48.314;11.562;2024-01-30T13:47:00;6.15;;;4.53;;
36585;SDS011;22591;48.314;11.562;2024-01-30T13:49:25;4.82;;;4.30;;
36585;SDS011;22591;48.314;11.562;2024-01-30T13:51:52;7.10;;;4.60;;
36585;SDS011;22591;48.314;11.562;2024-01-30T13:54:17;4.53;;;4.13;;
36585;SDS011;22591;48.314;11.562;2024-01-30T13:56:43;9.75;;;4.30;;
36585;SDS011;22591;48.314;11.562;2024-01-30T13:59:08;8.73;;;4.65;;
36585;SDS011;22591;48.314;11.562;2024-01-30T14:01:34;4.63;;;4.22;;
36585;SDS011;22591;48.314;11.562;2024-01-30T14:03:59;6.25;;;4.43;;
36585;SDS011;22591;48.314;11.562;2024-01-30T14:06:25;8.95;;;4.45;;
36585;SDS011;22591;48.314;11.562;2024-01-30T14:08:50;5.00;;;4.60;;
36585;SDS011;22591;48.314;11.562;2024-01-30T14:11:16;7.15;;;4.88;;
36585;SDS011;22591;48.314;11.562;2024-01-30T14:13:41;5.32;;;4.82;;
36585;SDS011;22591;48.314;11.562;2024-01-30T14:16:07;5.20;;;4.40;;
36585;SDS011;22591;48.314;11.562;2024-01-30T14:18:33;5.18;;;4.88;;